Time;durP1;ratioP1;P1;durP2;ratioP2;P2;SDS_P1;SDS_P2;PMS_P1;PMS_P2;Temp;Humidity;BMP_temperature;BMP_pressure;BME280_temperature;BME280_humidity;BME280_pressure;Samples;Min_cycle;Max_cycle;Signal;HPM_P1;HPM_P2
2023/10/13 00:01:06;;;;;;;;;;;9.80;99.90;;;;;;5041738;28;19915;-78
2023/10/13 00:03:32;;;;;;;;;;;9.80;99.90;;;;;;5036198;28;19951;-78
2023/10/13 00:06:00;;;;;;;;;;;9.90;99.90;;;;;;5018309;28;19956;-78
2023/10/13 00:08:26;;;;;;;;;;;9.90;99.90;;;;;;5037634;28;19917;-78
2023/10/13 00:10:51;;;;;;;;;;;10.00;99.90;;;;;;5034801;28;20043;-78
2023/10/13 00:13:18;;;;;;;;;;;10.00;99.90;;;;;;5036957;28;19912;-78
2023/10/13 00:15:58;;;;;;;;;;;10.10;99.90;;;;;;5022449;28;20039;-79
2023/10/13 00:18:26;;;;;;;;;;;10.20;99.90;;;;;;5047423;28;19916;-78
2023/10/13 00:20:52;;;;;;;;;;;10.20;99.90;;;;;;5038195;28;19959;-78
2023/10/13 00:23:20;;;;;;;;;;;10.20;99.90;;;;;;5019848;28;19960;-78
2023/10/13 00:25:50;;;;;;;;;;;10.30;99.90;;;;;;5045519;28;19917;-78
2023/10/13 00:28:23;;;;;;;;;;;10.20;99.90;;;;;;5050888;28;19912;-78
2023/10/13 00:30:51;;;;;;;;;;;10.20;99.90;;;;;;5040820;28;19948;-78
2023/10/13 00:33:20;;;;;;;;;;;10.30;99.90;;;;;;5032022;28;19909;-78
2023/10/13 00:35:47;;;;;;;;;;;10.40;99.90;;;;;;5031769;28;19915;-78
2023/10/13 00:38:12;;;;;;;;;;;10.40;99.90;;;;;;5045616;28;19913;-79
2023/10/13 00:48:43;;;;;;;;;;;10.40;99.90;;;;;;5025919;28;19923;-78
2023/10/13 00:51:18;;;;;;;;;;;10.40;99.90;;;;;;5039418;28;19919;-78
2023/10/13 00:53:46;;;;;;;;;;;10.40;99.90;;;;;;5031920;28;19925;-78
2023/10/13 00:56:27;;;;;;;;;;;10.40;99.90;;;;;;5030505;28;19968;-79
2023/10/13 00:58:53;;;;;;;;;;;10.40;99.90;;;;;;5032629;28;19916;-78
2023/10/13 01:01:29;;;;;;;;;;;10.40;99.90;;;;;;5038449;28;19909;-78
2023/10/13 01:04:08;;;;;;;;;;;10.40;99.90;;;;;;5041369;28;19912;-78
2023/10/13 01:06:34;;;;;;;;;;;10.40;99.90;;;;;;5045887;28;19963;-78
2023/10/13 01:09:11;;;;;;;;;;;10.50;99.90;;;;;;5037288;28;19986;-78
2023/10/13 01:11:37;;;;;;;;;;;10.50;99.90;;;;;;5044899;28;20284;-79
2023/10/13 01:14:04;;;;;;;;;;;10.50;99.90;;;;;;5048458;28;19913;-78
2023/10/13 01:16:30;;;;;;;;;;;10.50;99.90;;;;;;5043254;28;19917;-78
2023/10/13 01:18:59;;;;;;;;;;;10.50;99.90;;;;;;5040480;28;19919;-78
2023/10/13 01:21:27;;;;;;;;;;;10.50;99.90;;;;;;5039084;28;19924;-78
2023/10/13 01:23:53;;;;;;;;;;;10.50;99.90;;;;;;5038178;28;19916;-78
2023/10/13 01:26:26;;;;;;;;;;;10.50;99.90;;;;;;5038286;28;20451;-78
2023/10/13 01:28:54;;;;;;;;;;;10.50;99.90;;;;;;5048760;28;19913;-78
2023/10/13 01:31:37;;;;;;;;;;;10.60;99.90;;;;;;5043150;28;19970;-78
2023/10/13 01:34:02;;;;;;;;;;;10.60;99.90;;;;;;5050004;28;20265;-78
2023/10/13 01:36:28;;;;;;;;;;;10.60;99.90;;;;;;5044497;28;19909;-78
2023/10/13 01:38:53;;;;;;;;;;;10.70;99.90;;;;;;5032638;28;19909;-78
2023/10/13 01:41:20;;;;;;;;;;;10.70;99.90;;;;;;5040320;28;19959;-78
2023/10/13 01:43:45;;;;;;;;;;;10.70;99.90;;;;;;5048974;28;19912;-78
2023/10/13 01:46:13;;;;;;;;;;;10.70;99.90;;;;;;5046988;28;19916;-79
2023/10/13 01:48:41;;;;;;;;;;;10.70;99.90;;;;;;5046621;28;19920;-78
2023/10/13 01:51:09;;;;;;;;;;;10.80;99.90;;;;;;5041287;28;19948;-78
2023/10/13 01:53:38;;;;;;;;;;;10.80;99.90;;;;;;5039031;28;19913;-78
2023/10/13 01:56:10;;;;;;;;;;;10.80;99.90;;;;;;5035361;28;19915;-78
2023/10/13 01:58:36;;;;;;;;;;;10.80;99.90;;;;;;5049868;28;19911;-78
2023/10/13 02:01:02;;;;;;;;;;;10.80;99.90;;;;;;5039419;28;19909;-78
2023/10/13 02:03:29;;;;;;;;;;;10.80;99.90;;;;;;5028938;28;20019;-78
2023/10/13 02:05:57;;;;;;;;;;;10.80;99.90;;;;;;5046167;28;20012;-78
2023/10/13 02:08:23;;;;;;;;;;;10.80;99.90;;;;;;5038878;28;19909;-78
2023/10/13 02:10:52;;;;;;;;;;;10.80;99.90;;;;;;5042791;28;19954;-78
2023/10/13 02:13:22;;;;;;;;;;;10.80;99.90;;;;;;5045238;28;19924;-78
2023/10/13 02:15:48;;;;;;;;;;;10.80;99.90;;;;;;5049970;28;20376;-78
2023/10/13 02:18:20;;;;;;;;;;;10.90;99.90;;;;;;5050188;28;19908;-78
2023/10/13 02:20:46;;;;;;;;;;;10.80;99.90;;;;;;5041919;28;19968;-78
2023/10/13 02:23:12;;;;;;;;;;;10.90;99.90;;;;;;5033420;28;19908;-78
2023/10/13 02:25:45;;;;;;;;;;;10.90;99.90;;;;;;5034785;28;19992;-78
2023/10/13 02:28:14;;;;;;;;;;;10.80;99.90;;;;;;5044150;28;19921;-78
2023/10/13 02:30:48;;;;;;;;;;;10.90;99.90;;;;;;5043414;28;19913;-78
2023/10/13 02:33:14;;;;;;;;;;;10.90;99.90;;;;;;5035695;28;19909;-79
2023/10/13 02:35:55;;;;;;;;;;;10.90;99.90;;;;;;5050698;28;20015;-79
2023/10/13 02:41:27;;;;;;;;;;;10.80;99.90;;;;;;5019802;28;19974;-79
2023/10/13 02:43:53;;;;;;;;;;;10.80;99.90;;;;;;5029303;28;20305;-79
2023/10/13 02:46:21;;;;;;;;;;;10.80;99.90;;;;;;5042292;28;19921;-79
2023/10/13 02:48:52;;;;;;;;;;;10.80;99.90;;;;;;5032912;28;19905;-79
2023/10/13 02:51:18;;;;;;;;;;;10.80;99.90;;;;;;5047088;28;19916;-78
2023/10/13 02:53:52;;;;;;;;;;;10.80;99.90;;;;;;5048729;28;19961;-79
2023/10/13 02:56:21;;;;;;;;;;;10.80;99.90;;;;;;5050070;28;19951;-78
2023/10/13 02:58:52;;;;;;;;;;;10.80;99.90;;;;;;5045452;28;19913;-79
2023/10/13 03:01:18;;;;;;;;;;;10.90;99.90;;;;;;5042337;28;20008;-79
2023/10/13 03:03:47;;;;;;;;;;;10.90;99.90;;;;;;5046900;28;19996;-78
2023/10/13 03:06:13;;;;;;;;;;;10.90;99.90;;;;;;5036086;28;20011;-79
2023/10/13 03:08:39;;;;;;;;;;;10.90;99.90;;;;;;5040051;28;19912;-79
2023/10/13 03:11:05;;;;;;;;;;;10.90;99.90;;;;;;5033488;28;19920;-79
2023/10/13 03:13:33;;;;;;;;;;;10.90;99.90;;;;;;5042875;28;19927;-79
2023/10/13 03:15:59;;;;;;;;;;;10.90;99.90;;;;;;5047733;28;19920;-78
2023/10/13 03:18:24;;;;;;;;;;;11.00;99.90;;;;;;5042904;28;19951;-79
2023/10/13 03:20:56;;;;;;;;;;;11.00;99.90;;;;;;5041759;28;20513;-79
2023/10/13 03:23:21;;;;;;;;;;;11.00;99.90;;;;;;5041735;28;19913;-79
2023/10/13 03:25:49;;;;;;;;;;;11.00;99.90;;;;;;5043589;28;19927;-78
2023/10/13 03:28:16;;;;;;;;;;;11.00;99.90;;;;;;5038693;28;19959;-79
2023/10/13 03:30:42;;;;;;;;;;;11.00;99.90;;;;;;5043829;28;19913;-78
2023/10/13 03:33:12;;;;;;;;;;;11.00;99.90;;;;;;5043514;28;20370;-79
2023/10/13 03:35:38;;;;;;;;;;;11.00;99.90;;;;;;5044621;28;19909;-79
2023/10/13 03:38:04;;;;;;;;;;;11.00;99.90;;;;;;5032857;28;20384;-79
2023/10/13 03:45:26;;;;;;;;;;;11.00;99.90;;;;;;5045784;28;20462;-79
2023/10/13 03:47:52;;;;;;;;;;;11.10;99.90;;;;;;5033055;28;19972;-79
2023/10/13 03:50:29;;;;;;;;;;;11.10;99.90;;;;;;5037723;28;19998;-79
2023/10/13 03:53:00;;;;;;;;;;;11.10;99.90;;;;;;5036250;28;19912;-79
2023/10/13 03:55:29;;;;;;;;;;;11.10;99.90;;;;;;5042015;28;20369;-79
2023/10/13 03:57:54;;;;;;;;;;;11.10;99.90;;;;;;5047413;28;19912;-80
2023/10/13 04:00:27;;;;;;;;;;;11.10;99.90;;;;;;5040290;28;19927;-79
2023/10/13 04:06:00;;;;;;;;;;;11.10;99.90;;;;;;5032257;28;19996;-79
2023/10/13 04:19:19;;;;;;;;;;;11.10;99.90;;;;;;5043539;28;19908;-79
2023/10/13 04:21:39;;;;;;;;;;;11.20;99.90;;;;;;5047428;28;19912;-79
2023/10/13 04:24:39;;;;;;;;;;;11.20;99.90;;;;;;5045280;28;19913;-79
2023/10/13 04:29:49;;;;;;;;;;;11.20;99.90;;;;;;5046057;28;20024;-79
2023/10/13 04:32:19;;;;;;;;;;;11.30;99.90;;;;;;5030967;28;19917;-79
2023/10/13 04:34:51;;;;;;;;;;;11.30;99.90;;;;;;5046416;28;19917;-79
2023/10/13 04:37:29;;;;;;;;;;;11.30;99.90;;;;;;5045919;28;20015;-78
2023/10/13 04:40:08;;;;;;;;;;;11.30;99.90;;;;;;5047586;28;20031;-79
2023/10/13 04:42:49;;;;;;;;;;;11.30;99.90;;;;;;5044708;28;19916;-78
2023/10/13 04:48:38;;;;;;;;;;;11.40;99.90;;;;;;5044040;28;20309;-79
2023/10/13 04:50:46;;;;;;;;;;;11.40;99.90;;;;;;5019662;28;19954;-79
2023/10/13 05:44:56;;;;;;;;;;;12.10;99.90;;;;;;5051176;28;20323;-78
2023/10/13 06:31:02;;;;;;;0.10;0.10;;;12.90;99.90;;;;;;5037806;28;20460;-80
2023/10/13 06:33:33;;;;;;;0.10;0.10;;;13.00;99.90;;;;;;5042899;28;20452;-79
2023/10/13 06:35:59;;;;;;;0.20;0.20;;;13.00;99.90;;;;;;5043298;28;20429;-79
2023/10/13 06:38:30;;;;;;;0.10;0.10;;;13.10;99.90;;;;;;5041777;28;20500;-79
2023/10/13 06:40:57;;;;;;;0.10;0.10;;;13.10;99.90;;;;;;5040324;28;20457;-80
2023/10/13 06:43:23;;;;;;;0.20;0.20;;;13.10;99.90;;;;;;5050809;28;20437;-80
2023/10/13 06:46:01;;;;;;;0.10;0.10;;;13.20;99.90;;;;;;5041584;28;20499;-79
2023/10/13 06:48:32;;;;;;;0.10;0.10;;;13.20;99.90;;;;;;5042835;28;20968;-79
2023/10/13 06:51:03;;;;;;;0.10;0.10;;;13.30;99.90;;;;;;5038422;28;20474;-79
2023/10/13 06:53:29;;;;;;;0.10;0.10;;;13.20;99.90;;;;;;5034842;28;20456;-84
2023/10/13 06:55:58;;;;;;;0.10;0.10;;;13.30;99.90;;;;;;5023894;28;20495;-82
2023/10/13 06:58:25;;;;;;;0.10;0.10;;;13.30;99.90;;;;;;5036204;28;20180;-79
2023/10/13 07:00:55;;;;;;;0.10;0.10;;;13.50;99.90;;;;;;5046235;28;20544;-79
2023/10/13 07:03:22;;;;;;;0.10;0.10;;;13.50;99.90;;;;;;5044053;28;20491;-79
2023/10/13 07:05:48;;;;;;;0.10;0.10;;;13.50;99.90;;;;;;5042265;28;20511;-80
2023/10/13 07:08:17;;;;;;;0.10;0.10;;;13.60;99.90;;;;;;5046192;28;20445;-82
2023/10/13 07:11:13;;;;;;;0.10;0.10;;;13.70;99.90;;;;;;5038841;28;20271;-83
2023/10/13 07:13:39;;;;;;;0.10;0.10;;;13.70;99.90;;;;;;5044627;28;20836;-80
2023/10/13 07:16:07;;;;;;;0.10;0.10;;;13.80;99.90;;;;;;5045892;28;20479;-82
2023/10/13 07:18:41;;;;;;;0.10;0.10;;;13.80;99.90;;;;;;5049081;28;20198;-83
2023/10/13 07:21:11;;;;;;;0.10;0.10;;;13.90;99.90;;;;;;5048026;28;20440;-83
2023/10/13 07:23:38;;;;;;;0.10;0.10;;;13.90;99.90;;;;;;5047195;28;20436;-83
2023/10/13 07:26:06;;;;;;;0.10;0.10;;;14.00;99.90;;;;;;5044658;28;20500;-83
2023/10/13 07:28:35;;;;;;;0.10;0.10;;;14.00;99.90;;;;;;5047994;28;20461;-83
2023/10/13 07:33:30;;;;;;;0.10;0.10;;;14.10;99.90;;;;;;5040854;28;20457;-82
2023/10/13 07:36:19;;;;;;;0.10;0.10;;;14.20;99.90;;;;;;5046948;28;20441;-81
2023/10/13 07:38:52;;;;;;;0.10;0.10;;;14.30;99.90;;;;;;5047597;28;20524;-84
2023/10/13 07:41:21;;;;;;;0.10;0.10;;;14.30;99.90;;;;;;5048208;28;20481;-84
2023/10/13 07:43:48;;;;;;;0.10;0.10;;;14.20;99.90;;;;;;5046244;28;20510;-83
2023/10/13 07:46:14;;;;;;;0.10;0.10;;;14.40;99.90;;;;;;5049744;28;20465;-84
2023/10/13 07:48:40;;;;;;;0.10;0.10;;;14.40;99.90;;;;;;5047011;28;20460;-84
2023/10/13 07:51:10;;;;;;;0.10;0.10;;;14.40;99.90;;;;;;5040514;28;20206;-84
2023/10/13 07:53:39;;;;;;;0.10;0.10;;;14.40;99.90;;;;;;5031618;28;20179;-83
2023/10/13 07:56:05;;;;;;;0.10;0.10;;;14.50;99.90;;;;;;5043529;28;20433;-83
2023/10/13 07:58:33;;;;;;;0.10;0.10;;;14.60;99.90;;;;;;5045132;28;20508;-81
2023/10/13 08:03:34;;;;;;;0.10;0.10;;;14.60;99.90;;;;;;5044455;28;20452;-80
2023/10/13 08:08:39;;;;;;;0.10;0.10;;;14.80;99.90;;;;;;5040847;28;20449;-83
2023/10/13 08:11:24;;;;;;;0.10;0.10;;;14.80;99.90;;;;;;5045956;28;20557;-83
2023/10/13 08:13:56;;;;;;;0.10;0.10;;;14.80;99.90;;;;;;5049609;28;20269;-83
2023/10/13 08:16:22;;;;;;;0.10;0.10;;;14.80;99.90;;;;;;5048364;28;20983;-83
2023/10/13 08:18:52;;;;;;;0.10;0.10;;;14.90;99.90;;;;;;5049723;28;20520;-83
2023/10/13 08:21:24;;;;;;;0.10;0.10;;;14.90;99.90;;;;;;5047568;28;20453;-84
2023/10/13 08:24:06;;;;;;;0.10;0.10;;;14.90;99.90;;;;;;5045968;28;20459;-83
2023/10/13 08:31:49;;;;;;;0.10;0.10;;;15.10;99.90;;;;;;5048534;28;20440;-84
2023/10/13 08:34:23;;;;;;;0.10;0.10;;;15.20;99.90;;;;;;5034284;28;20456;-84
2023/10/13 08:36:48;;;;;;;0.10;0.10;;;15.10;99.90;;;;;;5046244;28;20439;-86
2023/10/13 08:42:11;;;;;;;0.10;0.10;;;15.30;99.90;;;;;;5044711;28;20193;-84
2023/10/13 08:44:51;;;;;;;0.10;0.10;;;15.30;99.90;;;;;;5039683;28;20434;-86
2023/10/13 08:47:20;;;;;;;0.10;0.10;;;15.20;99.90;;;;;;5019854;28;21144;-84
2023/10/13 08:50:10;;;;;;;0.10;0.10;;;15.30;99.90;;;;;;5017835;28;20429;-88
2023/10/13 08:52:46;;;;;;;0.10;0.10;;;15.30;99.90;;;;;;5045912;28;20429;-90
2023/10/13 08:58:03;;;;;;;0.10;0.10;;;15.30;99.90;;;;;;5000793;28;20421;-84
2023/10/13 09:00:55;;;;;;;0.10;0.10;;;15.40;99.90;;;;;;5042989;28;20961;-89
2023/10/13 09:03:38;;;;;;;0.10;0.10;;;15.40;99.90;;;;;;5047177;28;20519;-91
2023/10/13 09:06:06;;;;;;;0.10;0.10;;;15.40;99.90;;;;;;5044538;28;20580;-91
2023/10/13 09:08:35;;;;;;;0.10;0.10;;;15.40;99.90;;;;;;5044626;28;20459;-92
2023/10/13 09:11:12;;;;;;;0.10;0.10;;;15.50;99.90;;;;;;5040383;28;20913;-89
2023/10/13 09:13:44;;;;;;;0.10;0.10;;;15.50;99.90;;;;;;5045231;28;21136;-92
2023/10/13 09:16:21;;;;;;;0.10;0.10;;;15.60;99.90;;;;;;5040995;28;20519;-92
2023/10/13 09:18:47;;;;;;;0.10;0.10;;;15.60;99.90;;;;;;5045520;28;20558;-86
2023/10/13 09:21:48;;;;;;;0.20;0.20;;;15.60;99.90;;;;;;5034798;28;20425;-91
2023/10/13 09:24:21;;;;;;;0.10;0.10;;;15.70;99.90;;;;;;5026185;28;20221;-91
2023/10/13 09:26:49;;;;;;;0.10;0.10;;;15.70;99.90;;;;;;5040425;28;20865;-91
2023/10/13 09:29:18;;;;;;;0.10;0.10;;;15.70;99.90;;;;;;5046302;28;20437;-92
2023/10/13 09:31:48;;;;;;;0.10;0.10;;;15.70;99.90;;;;;;5041723;28;20441;-92
2023/10/13 09:34:29;;;;;;;0.10;0.10;;;15.70;99.90;;;;;;5036393;28;20430;-92
2023/10/13 09:36:58;;;;;;;0.10;0.10;;;15.70;99.90;;;;;;5054922;28;20427;-96
2023/10/13 09:39:29;;;;;;;0.10;0.10;;;15.70;99.90;;;;;;5048741;28;20436;-96
2023/10/13 09:41:59;;;;;;;0.10;0.10;;;15.70;99.90;;;;;;5053059;28;20409;-96
2023/10/13 09:44:30;;;;;;;0.10;0.10;;;15.70;99.90;;;;;;5048362;28;20447;-96
2023/10/13 09:47:04;;;;;;;0.10;0.10;;;15.70;99.90;;;;;;5044397;28;20475;-96
2023/10/13 09:49:44;;;;;;;0.10;0.10;;;15.70;99.90;;;;;;5046773;28;20457;-96
2023/10/13 09:52:18;;;;;;;0.10;0.10;;;15.70;99.90;;;;;;5047775;28;20427;-96
2023/10/13 09:54:59;;;;;;;0.10;0.10;;;15.70;99.90;;;;;;5037550;28;20510;-95
2023/10/13 09:57:34;;;;;;;0.10;0.10;;;15.70;99.90;;;;;;5043852;28;20444;-90
2023/10/13 10:00:44;;;;;;;0.10;0.10;;;15.80;99.90;;;;;;5031910;28;20491;-92
2023/10/13 10:03:29;;;;;;;0.10;0.10;;;15.80;99.90;;;;;;5045080;28;20516;-92
2023/10/13 10:06:06;;;;;;;0.10;0.10;;;15.90;99.90;;;;;;5041082;28;20441;-95
2023/10/13 10:08:36;;;;;;;0.10;0.10;;;15.80;99.90;;;;;;5032700;28;20478;-94
2023/10/13 10:11:35;;;;;;;0.10;0.10;;;15.90;99.90;;;;;;5028014;28;20430;-93
2023/10/13 10:14:08;;;;;;;0.10;0.10;;;16.00;99.90;;;;;;5018793;28;20599;-89
2023/10/13 10:17:10;;;;;;;0.10;0.10;;;16.00;99.90;;;;;;5044121;28;20480;-90
2023/10/13 10:19:56;;;;;;;0.10;0.10;;;16.00;99.90;;;;;;5042809;28;20444;-91
2023/10/13 10:22:44;;;;;;;0.10;0.10;;;16.00;99.90;;;;;;5032574;28;20560;-93
2023/10/13 10:25:25;;;;;;;0.10;0.10;;;16.00;99.90;;;;;;5041305;28;20429;-89
2023/10/13 10:27:57;;;;;;;0.10;0.10;;;16.00;99.90;;;;;;5041696;28;20874;-94
2023/10/13 10:30:43;;;;;;;0.10;0.10;;;16.00;99.90;;;;;;5042701;28;20505;-94
2023/10/13 10:33:15;;;;;;;0.10;0.10;;;15.90;99.90;;;;;;5040757;28;20460;-92
2023/10/13 10:35:42;;;;;;;0.10;0.10;;;15.90;99.90;;;;;;5053078;28;20421;-89
2023/10/13 10:41:01;;;;;;;0.10;0.10;;;15.80;99.90;;;;;;5041004;28;20449;-88
2023/10/13 10:43:29;;;;;;;0.10;0.10;;;15.80;99.90;;;;;;5046032;28;20563;-93
2023/10/13 10:45:59;;;;;;;0.10;0.10;;;15.80;99.90;;;;;;5045341;28;20441;-93
2023/10/13 10:48:31;;;;;;;0.10;0.10;;;15.80;99.90;;;;;;5040923;28;20449;-90
2023/10/13 10:50:58;;;;;;;0.10;0.10;;;15.80;99.90;;;;;;5044351;28;20430;-90
2023/10/13 10:53:43;;;;;;;0.10;0.10;;;15.80;99.90;;;;;;5043915;28;20429;-90
2023/10/13 10:58:59;;;;;;;0.10;0.10;;;15.80;99.90;;;;;;5040772;28;20443;-89
2023/10/13 11:01:38;;;;;;;0.10;0.10;;;15.90;99.90;;;;;;5048639;28;20437;-91
2023/10/13 11:06:49;;;;;;;0.10;0.10;;;15.90;99.90;;;;;;5039477;28;20559;-93
2023/10/13 11:09:27;;;;;;;0.10;0.10;;;15.90;99.90;;;;;;5023300;28;20585;-87
2023/10/13 11:11:57;;;;;;;0.10;0.10;;;16.00;99.90;;;;;;5034983;28;20425;-89
2023/10/13 11:14:26;;;;;;;0.10;0.10;;;16.40;99.90;;;;;;5014107;28;20579;-89
2023/10/13 11:17:13;;;;;;;0.10;0.10;;;16.40;99.90;;;;;;5024280;28;20507;-91
2023/10/13 11:19:42;;;;;;;0.10;0.10;;;16.40;99.90;;;;;;5041121;28;20426;-94
2023/10/13 11:22:11;;;;;;;0.10;0.10;;;16.40;99.90;;;;;;5034132;28;20425;-91
2023/10/13 11:24:43;;;;;;;0.10;0.10;;;16.60;99.90;;;;;;5028088;28;20453;-90
2023/10/13 11:27:36;;;;;;;0.10;0.10;;;16.90;99.90;;;;;;5037599;28;20560;-90
2023/10/13 11:30:12;;;;;;;0.10;0.10;;;17.00;99.90;;;;;;5044346;28;20446;-89
2023/10/13 11:32:41;;;;;;;0.10;0.10;;;16.90;99.90;;;;;;5015076;28;20407;-95
2023/10/13 11:35:11;;;;;;;0.10;0.10;;;16.70;99.90;;;;;;5040866;28;20429;-94
2023/10/13 11:37:43;;;;;;;0.10;0.10;;;16.70;99.90;;;;;;5040351;28;20393;-88
2023/10/13 11:40:12;;;;;;;0.00;0.00;;;16.60;99.90;;;;;;5038834;28;20437;-90
2023/10/13 11:42:43;;;;;;;0.10;0.10;;;16.50;99.90;;;;;;5045309;28;20425;-92
2023/10/13 11:45:31;;;;;;;0.10;0.10;;;16.50;99.90;;;;;;5034912;28;20487;-89
2023/10/13 11:48:01;;;;;;;0.10;0.10;;;16.50;99.90;;;;;;5043290;28;20485;-92
2023/10/13 11:50:33;;;;;;;0.07;0.07;;;16.50;99.90;;;;;;5033025;28;20427;-91
2023/10/13 11:52:59;;;;;;;0.20;0.20;;;16.50;99.90;;;;;;5039642;28;20430;-92
2023/10/13 11:55:25;;;;;;;0.20;0.20;;;16.60;99.90;;;;;;5043419;28;20422;-89
2023/10/13 11:57:51;;;;;;;0.10;0.10;;;16.70;99.90;;;;;;5047467;28;20474;-92
2023/10/13 12:00:50;;;;;;;0.10;0.10;;;16.70;99.90;;;;;;5022218;28;20458;-90
2023/10/13 12:06:17;;;;;;;0.10;0.10;;;16.80;99.90;;;;;;5055352;28;20948;-95
2023/10/13 12:08:38;;;;;;;0.10;0.10;;;16.80;99.90;;;;;;5046643;28;20461;-91
2023/10/13 12:11:30;;;;;;;0.10;0.10;;;16.80;99.90;;;;;;5041410;28;20430;-89
2023/10/13 12:13:49;;;;;;;0.10;0.10;;;16.80;99.90;;;;;;5039032;28;20794;-90
2023/10/13 12:16:19;;;;;;;0.10;0.10;;;16.80;99.90;;;;;;5047838;28;20444;-90
2023/10/13 12:18:45;;;;;;;0.10;0.10;;;16.90;99.90;;;;;;5044038;28;20167;-96
2023/10/13 12:21:21;;;;;;;0.10;0.10;;;16.90;99.90;;;;;;5047924;28;20445;-89
2023/10/13 12:23:52;;;;;;;0.10;0.10;;;16.90;99.90;;;;;;5042114;28;20441;-91
2023/10/13 12:26:19;;;;;;;0.10;0.10;;;17.00;99.90;;;;;;5033009;28;20973;-91
2023/10/13 12:28:51;;;;;;;0.10;0.10;;;17.10;99.90;;;;;;5045071;28;20913;-87
2023/10/13 12:31:17;;;;;;;0.10;0.10;;;17.20;99.90;;;;;;5032289;28;20525;-89
2023/10/13 12:33:47;;;;;;;0.10;0.10;;;18.40;99.90;;;;;;5019261;28;20853;-90
2023/10/13 12:52:16;;;;;;;0.10;0.10;;;18.10;99.90;;;;;;5030934;28;20433;-91
2023/10/13 12:57:23;;;;;;;0.10;0.10;;;17.90;99.90;;;;;;5043045;28;20527;-87
2023/10/13 12:59:53;;;;;;;0.10;0.10;;;18.10;99.90;;;;;;5034202;28;20426;-88
2023/10/13 13:02:25;;;;;;;0.07;0.00;;;18.30;99.90;;;;;;5040298;28;20418;-88
2023/10/13 13:04:56;;;;;;;0.00;0.00;;;18.50;99.90;;;;;;5028824;28;21002;-89
2023/10/13 13:07:22;;;;;;;0.20;0.20;;;18.60;99.90;;;;;;5038738;28;20938;-89
2023/10/13 13:09:48;;;;;;;0.10;0.07;;;18.70;99.90;;;;;;5040407;28;20441;-88
2023/10/13 13:12:14;;;;;;;0.10;0.00;;;18.70;99.90;;;;;;5047700;28;20421;-86
2023/10/13 13:14:45;;;;;;;0.10;0.10;;;18.70;99.90;;;;;;5041427;28;20230;-90
2023/10/13 13:17:14;;;;;;;0.10;0.10;;;18.70;99.90;;;;;;5025086;28;20195;-91
2023/10/13 13:19:40;;;;;;;0.00;0.00;;;18.60;99.90;;;;;;5041759;28;20478;-95
2023/10/13 13:22:12;;;;;;;0.10;0.10;;;18.60;99.90;;;;;;5027612;28;20334;-89
2023/10/13 13:24:44;;;;;;;0.20;0.20;;;18.50;99.90;;;;;;5020909;28;20778;-92
2023/10/13 13:27:17;;;;;;;0.20;0.20;;;18.60;99.90;;;;;;5048174;28;20615;-94
2023/10/13 13:29:44;;;;;;;0.20;0.20;;;18.70;99.90;;;;;;5048313;28;20425;-86
2023/10/13 13:32:23;;;;;;;0.20;0.20;;;18.70;99.90;;;;;;5040615;28;20424;-86
2023/10/13 13:35:03;;;;;;;0.20;0.20;;;18.80;99.90;;;;;;5029423;28;20585;-92
2023/10/13 13:37:29;;;;;;;0.10;0.10;;;18.70;99.90;;;;;;5025210;28;20461;-94
2023/10/13 13:39:55;;;;;;;0.10;0.10;;;18.80;99.90;;;;;;5031195;28;20422;-90
2023/10/13 13:42:20;;;;;;;0.10;0.10;;;19.00;99.90;;;;;;5046960;28;20980;-87
2023/10/13 13:44:46;;;;;;;0.20;0.20;;;18.90;99.90;;;;;;5042060;28;20191;-87
2023/10/13 13:47:15;;;;;;;0.10;0.10;;;19.00;99.90;;;;;;5038926;28;20258;-89
2023/10/13 13:49:46;;;;;;;0.10;0.10;;;19.00;99.90;;;;;;5038203;28;20703;-85
2023/10/13 13:52:17;;;;;;;0.20;0.20;;;18.90;99.90;;;;;;5026374;28;20430;-88
2023/10/13 13:54:43;;;;;;;0.10;0.10;;;19.00;99.90;;;;;;5015847;28;20429;-87
2023/10/13 13:57:09;;;;;;;0.10;0.10;;;19.00;99.90;;;;;;5033546;28;20442;-86
2023/10/13 13:59:36;;;;;;;0.23;0.23;;;19.00;99.90;;;;;;5038873;28;20437;-84
2023/10/13 14:02:19;;;;;;;0.10;0.10;;;19.00;99.90;;;;;;5034479;28;20712;-87
2023/10/13 14:04:46;;;;;;;0.17;0.17;;;19.00;99.90;;;;;;5049477;28;20424;-88
2023/10/13 14:07:14;;;;;;;0.20;0.20;;;19.00;99.90;;;;;;5040366;28;20477;-85
2023/10/13 14:09:43;;;;;;;0.17;0.17;;;19.10;99.90;;;;;;5044829;28;20857;-84
2023/10/13 14:14:55;;;;;;;0.10;0.10;;;19.10;99.90;;;;;;5034245;28;20531;-87
2023/10/13 14:17:28;;;;;;;0.00;0.00;;;19.10;99.90;;;;;;5038711;28;20448;-83
2023/10/13 14:19:55;;;;;;;0.10;0.10;;;19.10;99.90;;;;;;5049901;28;20450;-87
2023/10/13 14:22:24;;;;;;;0.00;0.00;;;19.10;99.90;;;;;;5038153;28;21071;-87
2023/10/13 14:24:54;;;;;;;0.10;0.10;;;19.10;99.90;;;;;;5023808;28;20472;-87
2023/10/13 14:27:22;;;;;;;0.00;0.00;;;19.00;99.90;;;;;;5040403;28;20486;-92
2023/10/13 14:29:52;;;;;;;0.10;0.10;;;19.00;99.90;;;;;;5023648;28;20463;-90
2023/10/13 14:32:18;;;;;;;0.10;0.10;;;19.00;99.90;;;;;;5042519;28;20895;-90
2023/10/13 14:34:48;;;;;;;0.20;0.20;;;19.10;99.90;;;;;;5044221;28;20433;-92
2023/10/13 14:37:14;;;;;;;0.10;0.10;;;18.90;99.90;;;;;;5036272;28;20444;-90
2023/10/13 14:39:40;;;;;;;0.30;0.30;;;18.70;99.90;;;;;;5038892;28;20430;-94
2023/10/13 14:42:06;;;;;;;0.20;0.20;;;18.60;99.90;;;;;;5023551;28;20199;-92
2023/10/13 14:44:32;;;;;;;0.20;0.20;;;18.30;99.90;;;;;;5034539;28;21151;-92
2023/10/13 14:46:58;;;;;;;0.10;0.10;;;18.10;99.90;;;;;;5042428;28;20585;-88
2023/10/13 14:49:24;;;;;;;0.10;0.10;;;17.90;99.90;;;;;;5041076;28;20483;-89
2023/10/13 14:51:49;;;;;;;0.10;0.10;;;17.80;99.90;;;;;;5026974;28;20206;-92
2023/10/13 14:54:16;;;;;;;0.10;0.10;;;17.70;99.90;;;;;;5036350;28;20182;-96
2023/10/13 14:56:44;;;;;;;0.10;0.10;;;17.60;99.90;;;;;;5032906;28;20553;-94
2023/10/13 14:59:17;;;;;;;0.10;0.10;;;17.60;99.90;;;;;;5051278;28;20498;-95
2023/10/13 15:01:43;;;;;;;0.10;0.10;;;17.60;99.90;;;;;;5045966;28;20441;-93
2023/10/13 15:04:08;;;;;;;0.10;0.10;;;17.50;99.90;;;;;;5052492;28;20437;-96
2023/10/13 15:06:34;;;;;;;0.10;0.10;;;17.50;99.90;;;;;;5057007;28;20460;-96
2023/10/13 15:09:01;;;;;;;0.10;0.10;;;17.50;99.90;;;;;;5056247;28;20767;-95
2023/10/13 15:11:35;;;;;;;0.10;0.10;;;17.40;99.90;;;;;;5046991;28;22049;-96
2023/10/13 15:14:02;;;;;;;0.00;0.00;;;17.40;99.90;;;;;;5031441;28;20495;-96
2023/10/13 15:16:27;;;;;;;0.10;0.10;;;17.30;99.90;;;;;;5036112;28;20524;-94
2023/10/13 15:18:53;;;;;;;0.10;0.10;;;17.30;99.90;;;;;;5041754;28;20457;-96
2023/10/13 15:21:21;;;;;;;0.10;0.10;;;17.30;99.90;;;;;;5052825;28;20203;-95
2023/10/13 15:23:47;;;;;;;0.10;0.10;;;17.30;99.90;;;;;;5084977;22;20490;-96
2023/10/13 15:26:15;;;;;;;0.10;0.10;;;17.30;99.90;;;;;;5035635;28;20462;-96
2023/10/13 15:28:48;;;;;;;0.10;0.10;;;17.30;99.90;;;;;;5025685;28;20527;-92
2023/10/13 15:31:37;;;;;;;0.10;0.10;;;17.30;99.90;;;;;;5033324;28;20437;-95
2023/10/13 15:34:12;;;;;;;0.10;0.10;;;17.20;99.90;;;;;;5034474;28;20435;-95
2023/10/13 15:36:44;;;;;;;0.10;0.00;;;17.20;99.90;;;;;;5033039;28;20443;-95
2023/10/13 15:39:10;;;;;;;0.10;0.10;;;17.10;99.90;;;;;;5030286;28;20438;-90
2023/10/13 15:41:38;;;;;;;0.10;0.10;;;17.10;99.90;;;;;;5015291;28;20460;-90
2023/10/13 15:44:09;;;;;;;0.30;0.30;;;17.10;99.90;;;;;;5028328;28;20452;-95
2023/10/13 15:46:35;;;;;;;0.20;0.20;;;17.10;99.90;;;;;;5031794;28;20489;-95
2023/10/13 15:49:03;;;;;;;0.10;0.10;;;17.10;99.90;;;;;;5022671;28;21283;-91
2023/10/13 15:51:29;;;;;;;0.10;0.10;;;17.10;99.90;;;;;;5029662;28;20442;-94
2023/10/13 15:53:55;;;;;;;0.10;0.10;;;17.00;99.90;;;;;;5027534;28;20446;-94
2023/10/13 15:56:21;;;;;;;0.00;0.00;;;17.10;99.90;;;;;;5008095;28;20541;-95
2023/10/13 15:58:47;;;;;;;0.00;0.00;;;17.00;99.90;;;;;;5031427;28;20525;-96
2023/10/13 16:01:13;;;;;;;0.10;0.10;;;17.10;99.90;;;;;;5031363;28;20180;-92
2023/10/13 16:03:41;;;;;;;0.10;0.10;;;17.10;99.90;;;;;;5034938;28;20188;-94
2023/10/13 16:06:09;;;;;;;0.10;0.10;;;17.10;99.90;;;;;;5039695;28;20433;-96
2023/10/13 16:08:37;;;;;;;0.00;0.00;;;17.10;99.90;;;;;;5041876;28;20460;-96
2023/10/13 16:11:13;;;;;;;0.10;0.10;;;17.20;99.90;;;;;;5041103;28;20417;-95
2023/10/13 16:13:44;;;;;;;0.10;0.10;;;17.20;99.90;;;;;;5030973;28;20464;-91
2023/10/13 16:16:16;;;;;;;0.10;0.10;;;17.20;99.90;;;;;;5043827;28;20414;-91
2023/10/13 16:18:47;;;;;;;0.10;0.10;;;17.20;99.90;;;;;;5036546;28;20454;-96
2023/10/13 16:21:12;;;;;;;0.10;0.10;;;17.20;99.90;;;;;;5018489;28;20481;-90
2023/10/13 16:23:41;;;;;;;0.00;0.00;;;17.30;99.90;;;;;;5014118;28;21183;-94
2023/10/13 16:26:10;;;;;;;0.10;0.10;;;17.40;99.90;;;;;;5035044;28;20205;-94
2023/10/13 16:28:36;;;;;;;0.10;0.10;;;17.40;99.90;;;;;;5016546;28;20453;-96
2023/10/13 16:31:08;;;;;;;0.10;0.10;;;17.30;99.90;;;;;;5027144;28;20450;-96
2023/10/13 16:33:39;;;;;;;0.10;0.10;;;17.30;99.90;;;;;;5027498;28;20675;-96
2023/10/13 16:36:08;;;;;;;0.10;0.10;;;17.20;99.90;;;;;;5032713;28;20447;-95